Latest Weather Observations for Kingaroy

IDQ60801

Issued at 12:35 pm EST Saturday 26 July 2014 (issued every 30 minutes, with the page automatically refreshed every 10 minutes)

About weather observations | Map of weather stations | Latest weather observations for QLD | Other Formats
Station Details ID: 040922 Name: KINGAROY AIRPORT Lat: -26.57 Lon: 151.84 Height: 433.67 m
Data from the previous 72 hours. | See also: Recent months at Kingaroy
Date/Time
EST
Temp
°C
App
Temp
°C
Dew
Point
Rel
Hum
%
Delta-T
°C
Wind Press
QNH
hPa
Press
MSL
hPa
Rain
since 9 am
mm
Dir
 
Spd
km/h
Gust
km/h
Spd
kts
Gust
kts
26/12:30pm 18.9 17.2 12.6 67 3.6 N 13 22 7 12 1025.9 - 0.0
26/12:00pm 18.4 16.7 12.6 69 3.3 N 13 20 7 11 1026.1 1026.1 0.0
26/11:30am 18.0 17.3 13.1 73 2.8 NNW 9 13 5 7 1026.8 - 0.0
26/11:00am 17.1 16.6 12.8 76 2.4 N 7 11 4 6 1027.4 1027.4 0.0
26/10:30am 16.8 16.6 13.1 79 2.1 W 6 9 3 5 1027.9 - 0.0
26/10:00am 15.7 16.6 13.0 84 1.5 CALM 0 4 0 2 1027.8 1027.9 0.0
26/09:30am 14.7 15.7 13.1 90 0.9 CALM 0 0 0 0 1027.9 - 0.0
26/09:00am 13.3 13.6 12.2 93 0.6 SE 2 6 1 3 1027.9 1028.0 0.0
26/08:30am 11.9 11.1 11.0 94 0.5 S 6 7 3 4 1028.2 - 0.0
26/08:00am 11.1 11.3 10.5 96 0.3 CALM 0 0 0 0 1027.9 1028.0 0.0
26/07:30am 10.3 9.1 9.7 96 0.3 S 6 7 3 4 1028.0 - 0.0
26/07:00am 9.6 9.3 8.8 95 0.4 CALM 0 0 0 0 1027.7 1027.8 0.0
26/06:30am 9.8 9.2 9.0 95 0.4 WSW 2 6 1 3 1027.3 - 0.0
26/06:00am 9.6 8.6 8.7 94 0.4 SW 4 6 2 3 1027.2 1027.2 0.0
26/05:30am 9.9 9.3 9.1 95 0.4 SSW 2 6 1 3 1026.9 - 0.0
26/05:00am 10.2 8.4 9.6 96 0.3 S 9 11 5 6 1026.5 1026.5 0.0
26/04:30am 10.3 8.2 9.7 96 0.3 S 11 13 6 7 1026.4 - 0.0
26/04:00am 9.6 8.0 8.7 94 0.4 SSW 7 11 4 6 1026.2 1026.2 0.0
26/03:30am 13.1 12.9 11.8 92 0.7 NNE 4 7 2 4 1026.5 - 0.0
26/03:00am 12.8 12.2 12.2 96 0.3 NE 7 11 4 6 1026.6 1026.6 0.0
26/02:30am 11.4 11.2 10.5 94 0.5 E 2 7 1 4 1026.5 - 0.0
26/02:00am 12.6 11.9 12.0 96 0.3 ENE 7 11 4 6 1026.3 1026.3 0.0
26/01:30am 11.3 11.2 10.8 97 0.3 S 2 7 1 4 1026.6 - 0.0
26/01:00am 10.3 9.7 8.9 91 0.7 WSW 2 6 1 3 1026.9 1026.9 0.0
26/12:30am 12.1 10.6 10.5 90 0.8 E 9 11 5 6 1027.1 - 0.0
26/12:00am 13.0 13.4 11.2 89 1.0 E 0 0 0 0 1027.1 1027.1 0.0
 
Date/Time
EST
Temp
°C
App
Temp
°C
Dew
Point
Rel
Hum
%
Delta-T
°C
Wind Press
QNH
hPa
Press
MSL
hPa
Rain
since 9 am
mm
Dir
 
Spd
km/h
Gust
km/h
Spd
kts
Gust
kts
25/11:30pm 12.8 12.0 11.2 90 0.9 E 6 9 3 5 1027.2 - 0.0
25/11:00pm 13.6 13.0 11.8 89 1.0 ENE 6 11 3 6 1027.3 1027.3 0.0
25/10:30pm 13.4 12.4 11.1 86 1.2 ENE 7 9 4 5 1027.3 - 0.0
25/10:00pm 14.4 13.2 11.7 84 1.5 NE 9 13 5 7 1027.4 1027.4 0.0
25/09:30pm 14.5 13.4 11.8 84 1.5 ENE 9 15 5 8 1027.4 - 0.0
25/09:00pm 14.7 13.6 11.8 83 1.6 ENE 9 15 5 8 1027.3 1027.3 0.0
25/08:30pm 15.3 14.6 11.9 80 1.9 ENE 7 15 4 8 1027.2 - 0.0
25/08:00pm 15.8 15.0 11.8 77 2.2 ENE 7 11 4 6 1026.7 1026.7 0.0
25/07:30pm 16.2 14.9 11.4 73 2.6 ENE 9 17 5 9 1026.2 - 0.0
25/07:00pm 16.6 15.1 10.5 67 3.3 ENE 9 15 5 8 1025.9 1026.0 0.0
25/06:30pm 15.7 14.3 8.9 64 3.6 ENE 6 7 3 4 1025.5 - 0.0
25/06:00pm 16.3 14.8 8.5 60 4.0 ENE 6 7 3 4 1025.0 1025.0 0.0
25/05:30pm 18.1 16.7 8.9 55 4.9 ENE 6 9 3 5 1024.7 - 0.0
25/05:00pm 19.6 17.7 8.9 50 5.7 NE 9 15 5 8 1024.4 1024.4 0.0
25/04:30pm 20.7 18.6 8.4 45 6.6 ENE 9 15 5 8 1024.1 - 0.0
25/04:00pm 21.4 18.6 8.7 44 6.8 NNE 13 20 7 11 1023.9 1023.9 0.0
25/03:30pm 21.6 18.7 8.1 42 7.2 N 13 19 7 10 1023.8 - 0.0
25/03:00pm 21.7 18.5 6.8 38 7.7 NNE 13 24 7 13 1023.8 1023.7 0.0
25/02:30pm 22.2 19.0 6.8 37 8.1 NNE 13 20 7 11 1023.9 - 0.0
25/02:00pm 21.8 18.9 8.0 41 7.3 NNE 13 22 7 12 1024.1 1024.1 0.0
25/01:30pm 21.8 19.3 8.0 41 7.4 NE 11 20 6 11 1024.3 - 0.0
25/01:00pm 21.7 19.4 8.9 44 6.9 NE 11 22 6 12 1024.6 1024.6 0.0
25/12:30pm 20.5 18.2 9.1 48 6.2 ENE 11 17 6 9 1025.1 - 0.0
25/12:00pm 20.2 17.9 10.3 53 5.4 N 13 17 7 9 1025.8 1025.9 0.0
25/11:30am 19.3 17.0 10.6 57 4.8 NNE 13 17 7 9 1026.5 - 0.0
25/11:00am 19.5 17.8 11.3 59 4.6 NE 11 20 6 11 1026.9 1026.9 0.0
25/10:30am 18.3 16.4 11.8 66 3.6 NNE 13 24 7 13 1027.2 - 0.0
25/10:00am 17.6 16.4 12.9 74 2.7 NE 11 17 6 9 1027.3 1027.3 0.0
25/09:30am 15.9 15.0 12.5 80 1.9 NE 9 13 5 7 1027.3 - 0.0
25/09:00am 13.2 12.7 12.1 93 0.6 S 6 7 3 4 1027.3 1027.3 0.0
25/08:30am 11.0 11.3 10.8 99 0.1 CALM 0 0 0 0 1027.3 - 0.0
25/08:00am 8.6 8.3 8.5 99 0.0 CALM 0 0 0 0 1027.3 1027.3 0.0
25/07:30am 7.0 5.1 6.7 98 0.1 S 6 7 3 4 1027.0 - 0.0
25/07:00am 6.7 5.1 6.4 98 0.1 S 4 9 2 5 1026.6 1026.6 0.0
25/06:30am 6.5 5.7 6.4 99 0.0 CALM 0 0 0 0 1026.2 - 0.0
25/06:00am 6.6 5.8 6.5 99 0.0 CALM 0 0 0 0 1025.8 1025.9 0.0
25/05:30am 6.0 5.1 5.9 99 0.0 CALM 0 0 0 0 1025.7 - 0.0
25/05:00am 6.0 5.1 5.9 99 0.0 CALM 0 0 0 0 1025.4 1025.4 0.0
25/04:30am 6.2 5.3 6.1 99 0.0 CALM 0 0 0 0 1025.3 - 0.0
25/04:00am 6.0 5.1 5.9 99 0.0 CALM 0 0 0 0 1025.1 1025.1 0.0
25/03:30am 5.5 4.4 5.2 98 0.1 CALM 0 0 0 0 1025.0 - 0.0
25/03:00am 5.2 4.1 4.9 98 0.1 CALM 0 0 0 0 1024.9 1024.9 0.0
25/02:30am 5.7 3.5 5.3 97 0.2 ESE 6 7 3 4 1024.7 - 0.0
25/02:00am 5.7 3.8 5.0 95 0.3 E 4 9 2 5 1024.9 1024.9 0.0
25/01:30am 5.9 4.0 5.0 94 0.4 NW 4 7 2 4 1025.1 - 0.0
25/01:00am 6.5 3.5 5.8 95 0.3 S 11 11 6 6 1025.0 1025.0 0.0
25/12:30am 7.7 7.0 6.8 94 0.4 CALM 0 7 0 4 1025.2 - 0.0
25/12:00am 8.9 6.8 8.3 96 0.3 S 9 13 5 7 1025.3 1025.3 0.0
 
Date/Time
EST
Temp
°C
App
Temp
°C
Dew
Point
Rel
Hum
%
Delta-T
°C
Wind Press
QNH
hPa
Press
MSL
hPa
Rain
since 9 am
mm
Dir
 
Spd
km/h
Gust
km/h
Spd
kts
Gust
kts
24/11:30pm 9.1 8.6 7.7 91 0.7 CALM 0 0 0 0 1025.3 - 0.0
24/11:00pm 10.4 9.8 9.0 91 0.7 NW 2 7 1 4 1025.2 1025.2 0.0
24/10:30pm 12.0 11.2 11.2 95 0.4 S 6 9 3 5 1025.0 - 0.0
24/10:00pm 12.0 11.6 9.9 87 1.1 SE 2 6 1 3 1024.9 1024.9 0.0
24/09:30pm 12.7 11.6 10.1 84 1.4 E 6 11 3 6 1024.8 - 0.0
24/09:00pm 13.4 11.5 10.4 82 1.6 E 11 15 6 8 1024.6 1024.6 0.0
24/08:30pm 13.7 11.8 10.5 81 1.7 E 11 19 6 10 1024.2 - 0.0
24/08:00pm 14.0 12.1 9.2 73 2.5 E 9 15 5 8 1023.9 1023.9 0.0
24/07:30pm 14.7 12.1 9.5 71 2.7 E 13 20 7 11 1023.4 - 0.0
24/07:00pm 12.5 9.3 5.2 61 3.4 E 11 13 6 7 1023.0 1023.0 0.0
24/06:30pm 12.6 9.8 5.1 60 3.6 E 9 11 5 6 1022.5 - 0.0
24/06:00pm 14.2 11.7 4.8 53 4.5 E 7 11 4 6 1022.0 1022.0 0.0
24/05:30pm 16.3 15.1 4.4 45 5.7 CALM 0 0 0 0 1021.8 - 0.0
24/05:00pm 18.2 15.8 5.1 42 6.4 N 7 9 4 5 1021.5 1021.4 0.0
24/04:30pm 19.4 16.4 4.3 37 7.4 N 9 17 5 9 1021.0 - 0.0
24/04:00pm 20.3 17.0 4.8 36 7.7 N 11 15 6 8 1020.8 1020.8 0.0
24/03:30pm 20.7 17.7 3.9 33 8.2 N 9 15 5 8 1020.8 - 0.0
24/03:00pm 21.1 17.9 5.1 35 8.0 N 11 17 6 9 1020.7 1020.7 0.0
24/02:30pm 19.9 17.2 5.5 39 7.2 NNE 9 13 5 7 1020.8 - 0.0
24/02:00pm 20.7 18.2 4.7 35 7.9 NE 7 17 4 9 1020.9 1020.9 0.0
24/01:30pm 19.8 16.3 5.5 39 7.2 N 13 19 7 10 1021.3 - 0.0
24/01:00pm 20.7 17.7 4.3 34 8.1 NNE 9 20 5 11 1021.5 1021.4 0.0
24/12:30pm 20.1 16.5 2.9 32 8.2 N 11 19 6 10 1021.8 - 0.0
24/12:00pm 19.8 16.7 5.5 39 7.2 NNE 11 19 6 10 1022.4 1022.4 0.0
24/11:30am 19.1 17.0 8.4 50 5.7 ENE 9 15 5 8 1022.9 - 0.0
24/11:00am 18.3 15.8 8.0 51 5.4 ENE 11 19 6 10 1023.1 1023.1 0.0
24/10:30am 17.3 14.7 9.2 59 4.3 E 13 20 7 11 1023.4 - 0.0
24/10:00am 17.1 15.4 10.0 63 3.8 E 9 19 5 10 1024.0 1024.0 0.0
24/09:30am 15.5 12.7 10.1 70 2.9 E 15 22 8 12 1023.7 - 0.0
24/09:00am 14.6 12.7 10.4 76 2.2 E 11 15 6 8 1023.3 1023.3 0.0
24/08:30am 13.2 11.3 10.6 84 1.4 E 11 19 6 10 1023.1 - 0.0
24/08:00am 10.2 9.8 9.6 96 0.3 S 2 7 1 4 1023.0 1023.0 0.0
24/07:30am 6.5 4.9 6.2 98 0.1 S 4 7 2 4 1023.0 - 0.0
24/07:00am 5.6 3.4 5.2 97 0.2 SSE 6 7 3 4 1022.7 1022.7 0.0
24/06:30am 5.9 3.7 5.3 96 0.3 SSE 6 7 3 4 1022.5 - 0.0
24/06:00am 6.3 4.2 5.6 95 0.3 ESE 6 7 3 4 1022.3 1022.3 0.0
24/05:30am 6.3 4.0 5.7 96 0.3 S 7 9 4 5 1022.2 - 0.0
24/05:00am 6.2 5.1 5.3 94 0.4 CALM 0 0 0 0 1021.6 1021.5 0.0
24/04:30am 6.3 5.3 5.4 94 0.4 CALM 0 0 0 0 1021.5 - 0.0
24/04:00am 6.3 4.0 4.8 90 0.7 NNW 6 7 3 4 1021.3 1021.2 0.0
24/03:30am 6.9 5.9 5.4 90 0.7 CALM 0 0 0 0 1021.6 - 0.0
24/03:00am 8.1 7.3 6.7 91 0.7 CALM 0 0 0 0 1022.0 1022.0 0.0
24/02:30am 8.1 6.2 6.6 90 0.7 SSE 6 6 3 3 1022.0 - 0.0
24/02:00am 8.4 6.7 6.0 85 1.1 SSE 4 6 2 3 1022.2 1022.2 0.0
24/01:30am 8.2 7.1 5.1 81 1.4 CALM 0 0 0 0 1022.2 - 0.0
24/01:00am 8.4 6.2 5.3 81 1.4 S 6 7 3 4 1022.4 1022.4 0.0
24/12:30am 9.0 6.7 5.6 79 1.6 S 7 9 4 5 1022.5 - 0.0
24/12:00am 10.1 7.6 6.6 79 1.7 SSE 9 11 5 6 1022.6 1022.6 0.0
 
Date/Time
EST
Temp
°C
App
Temp
°C
Dew
Point
Rel
Hum
%
Delta-T
°C
Wind Press
QNH
hPa
Press
MSL
hPa
Rain
since 9 am
mm
Dir
 
Spd
km/h
Gust
km/h
Spd
kts
Gust
kts
23/11:30pm 9.7 7.5 6.2 79 1.7 S 7 9 4 5 1022.5 - 0.0
23/11:00pm 10.2 8.3 7.4 83 1.4 SSE 7 9 4 5 1022.4 1022.4 0.0
23/10:30pm 9.6 8.3 6.1 79 1.7 SE 2 6 1 3 1022.7 - 0.0
23/10:00pm 9.0 6.5 4.0 71 2.2 SE 6 7 3 4 1023.1 1023.1 0.0
23/09:30pm 9.6 8.6 5.4 75 2.0 CALM 0 0 0 0 1022.8 - 0.0
23/09:00pm 10.7 8.4 4.8 67 2.7 E 6 7 3 4 1022.3 1022.3 0.0
23/08:30pm 11.2 8.9 5.5 68 2.7 E 7 9 4 5 1022.0 - 0.0
23/08:00pm 11.1 8.2 4.6 64 3.0 ESE 9 11 5 6 1021.8 1021.7 0.0
23/07:30pm 12.0 8.7 4.7 61 3.4 E 11 13 6 7 1021.4 - 0.0
23/07:00pm 13.3 9.6 4.7 56 4.0 E 13 17 7 9 1020.9 1020.9 0.0
23/06:30pm 12.8 9.5 4.3 56 4.0 E 11 13 6 7 1020.4 - 0.0
23/06:00pm 12.9 9.6 4.3 56 4.0 E 11 15 6 8 1020.6 1020.6 0.0
23/05:30pm 15.1 12.6 4.5 49 5.1 ESE 7 9 4 5 1020.6 - 0.0
23/05:00pm 16.9 13.7 4.9 45 5.8 ESE 11 15 6 8 1020.2 1020.2 0.0
23/04:30pm 17.8 14.9 4.7 42 6.4 E 9 13 5 7 1020.2 - 0.0
23/04:00pm 18.1 14.8 4.3 40 6.7 E 11 17 6 9 1020.0 1020.0 0.0
23/03:30pm 18.4 16.0 4.2 39 6.9 NW 6 9 3 5 1020.1 - 0.0
23/03:00pm 18.3 15.2 3.8 38 7.0 SE 9 13 5 7 1020.0 1020.0 0.0
23/02:30pm 19.1 16.6 4.5 38 7.2 E 7 11 4 6 1020.3 - 0.0
23/02:00pm 18.6 16.1 4.8 40 6.8 E 7 11 4 6 1020.3 1020.3 0.0
23/01:30pm 18.7 16.1 4.1 38 7.1 ESE 7 13 4 7 1020.8 - 0.0
23/01:00pm 17.7 15.1 6.3 47 5.7 W 9 13 5 7 1021.3 1021.2 0.0

Other Formats:

Comma delimited format used in spreadsheet applications
http://www.bom.gov.au/fwo/IDQ60801/IDQ60801.94549.axf

JavaScript Object Notation format (JSON) in row-major order
http://www.bom.gov.au/fwo/IDQ60801/IDQ60801.94549.json